createdAt,value
2018-08-17T00:02:18.700Z,49.68
2018-08-17T00:04:47.256Z,50.54
2018-08-17T00:09:58.884Z,50.72
2018-08-17T00:12:27.595Z,50.80
2018-08-17T00:14:56.360Z,50.31
2018-08-17T00:17:25.034Z,50.10
2018-08-17T00:19:53.621Z,50.57
2018-08-17T00:22:22.312Z,50.38
2018-08-17T00:24:50.934Z,50.64
2018-08-17T00:27:19.626Z,50.52
2018-08-17T00:29:48.557Z,50.88
2018-08-17T00:32:17.173Z,49.98
2018-08-17T00:34:45.809Z,50.71
2018-08-17T00:37:14.540Z,49.84
2018-08-17T00:39:43.154Z,50.11
2018-08-17T00:42:11.749Z,50.51
2018-08-17T00:44:40.468Z,49.88
2018-08-17T00:47:09.101Z,49.60
2018-08-17T00:49:37.750Z,50.31
2018-08-17T00:52:06.437Z,49.73
2018-08-17T00:54:35.155Z,50.44
2018-08-17T00:57:03.783Z,50.13
2018-08-17T00:59:32.597Z,49.72
2018-08-17T01:02:01.254Z,49.47
2018-08-17T01:04:29.894Z,49.53
2018-08-17T01:06:58.555Z,50.31
2018-08-17T01:09:27.203Z,50.46
2018-08-17T01:11:55.873Z,49.99
2018-08-17T01:14:24.594Z,50.13
2018-08-17T01:16:53.160Z,50.12
2018-08-17T01:19:21.861Z,50.49
2018-08-17T01:21:50.460Z,50.56
2018-08-17T01:24:19.119Z,49.98
2018-08-17T01:26:47.771Z,50.05
2018-08-17T01:29:16.403Z,50.24
2018-08-17T01:31:45.020Z,50.22
2018-08-17T01:34:13.678Z,50.59
2018-08-17T01:36:42.309Z,50.50
2018-08-17T01:39:11.550Z,50.74
2018-08-17T01:41:40.455Z,49.94
2018-08-17T01:44:09.088Z,50.14
2018-08-17T01:46:37.764Z,50.00
2018-08-17T01:49:06.415Z,50.42
2018-08-17T01:51:35.051Z,50.49
2018-08-17T01:54:03.699Z,50.40
2018-08-17T01:56:32.301Z,49.49
2018-08-17T01:59:00.924Z,49.52
2018-08-17T02:01:29.571Z,49.95
2018-08-17T02:03:58.243Z,49.47
2018-08-17T02:06:26.880Z,49.79
2018-08-17T02:08:55.535Z,49.26
2018-08-17T02:11:24.073Z,49.32
2018-08-17T02:13:52.752Z,49.94
2018-08-17T02:16:21.310Z,49.95
2018-08-17T02:18:49.923Z,49.19
2018-08-17T02:21:18.517Z,49.27
2018-08-17T02:23:47.134Z,49.90
2018-08-17T02:26:15.854Z,49.09
2018-08-17T02:28:44.566Z,49.83
2018-08-17T02:31:13.199Z,49.20
2018-08-17T02:33:41.794Z,49.19
2018-08-17T02:36:11.040Z,49.63
2018-08-17T02:38:39.803Z,50.10
2018-08-17T02:41:08.532Z,49.34
2018-08-17T02:43:37.182Z,50.15
2018-08-17T02:46:06.004Z,50.01
2018-08-17T02:48:34.787Z,50.37
2018-08-17T02:51:03.490Z,49.82
2018-08-17T02:53:32.152Z,50.51
2018-08-17T02:56:00.742Z,50.36
2018-08-17T02:58:29.375Z,50.48
2018-08-17T03:00:57.959Z,50.81
2018-08-17T03:03:26.500Z,51.13
2018-08-17T03:05:55.064Z,51.01
2018-08-17T03:08:23.693Z,51.22
2018-08-17T03:10:52.271Z,51.09
2018-08-17T03:13:20.904Z,51.95
2018-08-17T03:15:49.480Z,51.23
2018-08-17T03:18:18.022Z,51.29
2018-08-17T03:20:46.646Z,52.15
2018-08-17T03:23:15.343Z,51.72
2018-08-17T03:25:44.079Z,52.58
2018-08-17T03:28:12.695Z,52.78
2018-08-17T03:30:41.324Z,52.44
2018-08-17T03:33:10.024Z,52.94
2018-08-17T03:35:38.809Z,52.36
2018-08-17T03:38:07.476Z,53.22
2018-08-17T03:40:36.336Z,53.38
2018-08-17T03:43:05.036Z,52.87
2018-08-17T03:45:33.865Z,53.16
2018-08-17T03:48:02.555Z,53.87
2018-08-17T03:50:31.194Z,53.62
2018-08-17T03:52:59.875Z,53.43
2018-08-17T03:55:28.770Z,53.68
2018-08-17T03:57:57.556Z,54.36
2018-08-17T04:00:26.179Z,54.35
2018-08-17T04:02:54.893Z,54.39
2018-08-17T04:05:23.615Z,54.61
2018-08-17T04:07:52.266Z,54.76
2018-08-17T04:10:20.892Z,54.95
2018-08-17T04:12:49.752Z,54.97
2018-08-17T04:15:18.427Z,54.95
2018-08-17T04:17:47.019Z,54.84
2018-08-17T04:20:15.647Z,54.72
2018-08-17T04:22:44.406Z,55.14
2018-08-17T04:25:13.183Z,54.65
2018-08-17T04:27:41.890Z,55.05
2018-08-17T04:30:10.614Z,55.01
2018-08-17T04:32:39.371Z,55.06
2018-08-17T04:35:08.081Z,55.07
2018-08-17T04:37:36.681Z,54.95
2018-08-17T04:40:05.553Z,55.19
2018-08-17T04:42:34.373Z,55.82
2018-08-17T04:45:03.052Z,54.85
2018-08-17T04:47:31.837Z,55.72
2018-08-17T04:50:00.555Z,55.30
2018-08-17T04:52:29.307Z,55.83
2018-08-17T04:54:58.072Z,54.88
2018-08-17T04:57:26.849Z,54.69
2018-08-17T04:59:55.636Z,55.24
2018-08-17T05:02:24.414Z,55.08
2018-08-17T05:04:53.046Z,53.91
2018-08-17T05:07:21.791Z,54.24
2018-08-17T05:09:50.588Z,53.63
2018-08-17T05:12:19.404Z,53.47
2018-08-17T05:14:48.934Z,53.56
2018-08-17T05:17:17.743Z,53.32
2018-08-17T05:19:46.550Z,53.42
2018-08-17T05:22:15.327Z,53.53
2018-08-17T05:24:44.161Z,53.37
2018-08-17T05:27:13.079Z,53.15
2018-08-17T05:29:41.935Z,52.58
2018-08-17T05:32:10.769Z,52.18
2018-08-17T05:34:39.505Z,51.91
2018-08-17T05:37:08.459Z,52.10
2018-08-17T05:39:37.480Z,52.00
2018-08-17T05:42:06.488Z,51.72
2018-08-17T05:44:35.184Z,51.68
2018-08-17T05:47:04.098Z,50.87
2018-08-17T05:49:32.854Z,51.05
2018-08-17T05:52:01.614Z,51.12
2018-08-17T05:54:30.475Z,50.58
2018-08-17T05:56:59.122Z,51.07
2018-08-17T05:59:27.772Z,50.66
2018-08-17T06:01:56.573Z,50.41
2018-08-17T06:04:25.322Z,50.69
2018-08-17T06:06:54.370Z,50.48
2018-08-17T06:09:23.065Z,49.94
2018-08-17T06:11:51.917Z,50.67
2018-08-17T06:14:20.711Z,50.11
2018-08-17T06:16:49.536Z,50.69
2018-08-17T06:19:18.462Z,50.41
2018-08-17T06:21:47.181Z,50.50
2018-08-17T06:24:15.896Z,51.37
2018-08-17T06:26:44.723Z,51.05
2018-08-17T06:29:13.427Z,51.79
2018-08-17T06:31:42.130Z,52.90
2018-08-17T06:34:10.890Z,54.08
2018-08-17T06:36:39.769Z,54.32
2018-08-17T06:39:10.185Z,54.54
2018-08-17T06:41:38.971Z,55.91
2018-08-17T06:44:07.760Z,55.09
2018-08-17T06:46:36.590Z,56.42
2018-08-17T06:49:05.307Z,55.67
2018-08-17T06:51:34.006Z,56.16
2018-08-17T06:54:02.991Z,56.72
2018-08-17T06:56:31.636Z,57.83
2018-08-17T06:59:01.132Z,57.49
2018-08-17T07:01:30.147Z,58.22
2018-08-17T07:03:58.842Z,58.82
2018-08-17T07:06:27.464Z,59.51
2018-08-17T07:08:56.072Z,59.62
2018-08-17T07:11:24.692Z,59.38
2018-08-17T07:13:53.373Z,60.35
2018-08-17T07:16:22.226Z,60.54
2018-08-17T07:18:51.036Z,61.38
2018-08-17T07:21:19.932Z,61.18
2018-08-17T07:23:48.620Z,62.16
2018-08-17T07:26:17.300Z,62.30
2018-08-17T07:28:45.955Z,62.12
2018-08-17T07:31:14.639Z,61.41
2018-08-17T07:33:43.395Z,62.37
2018-08-17T07:36:12.020Z,61.74
2018-08-17T07:38:40.902Z,60.92
2018-08-17T07:41:09.600Z,61.32
2018-08-17T07:43:38.319Z,61.21
2018-08-17T07:46:06.928Z,60.38
2018-08-17T07:48:35.719Z,60.44
2018-08-17T07:51:04.410Z,60.15
2018-08-17T07:53:33.232Z,59.34
2018-08-17T07:56:02.004Z,58.90
2018-08-17T07:58:30.683Z,57.05
2018-08-17T08:00:59.734Z,56.88
2018-08-17T08:03:28.473Z,55.95
2018-08-17T08:05:59.614Z,55.57
2018-08-17T08:08:28.221Z,55.22
2018-08-17T08:10:56.807Z,54.42
2018-08-17T08:13:25.420Z,54.40
2018-08-17T08:15:53.911Z,54.24
2018-08-17T08:18:22.472Z,55.01
2018-08-17T08:20:51.503Z,54.94
2018-08-17T08:23:25.884Z,55.02
2018-08-17T08:25:54.874Z,54.60
2018-08-17T08:28:23.443Z,52.60
2018-08-17T08:30:52.072Z,53.05
2018-08-17T08:33:20.994Z,51.41
2018-08-17T08:35:49.963Z,51.67
2018-08-17T08:38:18.878Z,52.12
2018-08-17T08:40:48.541Z,51.49
2018-08-17T08:43:17.385Z,50.53
2018-08-17T08:45:46.040Z,50.27
2018-08-17T08:48:14.829Z,49.74
2018-08-17T08:50:44.100Z,48.71
2018-08-17T08:53:12.742Z,45.50
2018-08-17T08:55:41.414Z,44.45
2018-08-17T08:58:10.071Z,43.04
2018-08-17T09:00:38.609Z,42.41
2018-08-17T09:03:07.515Z,42.21
2018-08-17T09:05:39.630Z,42.14
2018-08-17T09:08:08.306Z,42.22
2018-08-17T09:10:36.908Z,42.81
2018-08-17T09:13:05.534Z,43.24
2018-08-17T09:15:34.065Z,43.36
2018-08-17T09:18:02.773Z,44.12
2018-08-17T09:20:31.376Z,44.70
2018-08-17T09:23:00.061Z,46.03
2018-08-17T09:25:28.797Z,46.08
2018-08-17T09:27:57.543Z,47.29
2018-08-17T09:30:26.368Z,46.88
2018-08-17T09:32:55.273Z,47.99
2018-08-17T09:35:24.048Z,48.16
2018-08-17T09:37:52.699Z,48.29
2018-08-17T09:40:21.388Z,48.01
2018-08-17T09:42:49.949Z,47.73
2018-08-17T09:45:18.504Z,46.86
2018-08-17T09:47:47.136Z,47.64
2018-08-17T09:50:16.160Z,48.42
2018-08-17T09:52:44.790Z,47.53
2018-08-17T09:55:13.472Z,47.22
2018-08-17T09:57:42.388Z,47.40
2018-08-17T10:00:11.554Z,47.46
2018-08-17T10:02:45.492Z,47.81
2018-08-17T10:05:19.354Z,47.33
2018-08-17T10:07:53.140Z,45.97
2018-08-17T10:10:23.419Z,47.19
2018-08-17T10:12:52.708Z,46.04
2018-08-17T10:15:21.971Z,47.21
2018-08-17T10:17:50.772Z,45.50
2018-08-17T10:20:20.640Z,46.39
2018-08-17T10:22:49.273Z,45.59
2018-08-17T10:25:25.048Z,45.69
2018-08-17T10:27:58.169Z,45.58
2018-08-17T10:30:27.023Z,46.86
2018-08-17T10:32:57.043Z,46.60
2018-08-17T10:35:27.515Z,45.63
2018-08-17T10:37:58.429Z,46.24
2018-08-17T10:40:27.548Z,45.63
2018-08-17T10:42:56.294Z,46.33
2018-08-17T10:45:26.463Z,45.49
2018-08-17T10:47:55.770Z,45.81
2018-08-17T10:50:25.839Z,46.12
2018-08-17T10:52:55.954Z,46.45
2018-08-17T10:55:29.998Z,46.37
2018-08-17T10:57:58.594Z,46.97
2018-08-17T11:00:27.349Z,46.24
2018-08-17T11:02:56.052Z,46.70
2018-08-17T11:05:24.668Z,45.04
2018-08-17T11:07:53.263Z,43.64
2018-08-17T11:10:21.919Z,44.46
2018-08-17T11:12:50.591Z,42.25
2018-08-17T11:15:19.251Z,41.80
2018-08-17T11:17:47.944Z,40.69
2018-08-17T11:20:20.869Z,39.28
2018-08-17T11:22:49.615Z,38.72
2018-08-17T11:25:18.311Z,37.16
2018-08-17T11:27:48.285Z,35.74
2018-08-17T11:30:16.972Z,37.82
2018-08-17T11:32:45.694Z,37.11
2018-08-17T11:35:14.446Z,37.04
2018-08-17T11:37:43.155Z,38.42
2018-08-17T11:40:12.251Z,38.59
2018-08-17T11:42:50.491Z,39.33
2018-08-17T11:45:21.395Z,40.49
2018-08-17T11:47:50.501Z,40.82
2018-08-17T11:50:20.938Z,41.19
2018-08-17T11:52:54.689Z,40.99
2018-08-17T11:55:24.362Z,40.84
2018-08-17T11:57:53.225Z,40.79
2018-08-17T12:00:21.914Z,40.51
2018-08-17T12:02:50.603Z,40.78
2018-08-17T12:05:19.294Z,40.47
2018-08-17T12:07:49.349Z,40.79
2018-08-17T12:10:18.123Z,41.08
2018-08-17T12:12:47.702Z,41.16
2018-08-17T12:15:16.809Z,40.84
2018-08-17T12:17:45.491Z,41.26
2018-08-17T12:20:14.365Z,40.75
2018-08-17T12:22:43.468Z,40.96
2018-08-17T12:25:12.365Z,40.91
2018-08-17T12:27:47.057Z,40.55
2018-08-17T12:30:15.763Z,40.96
2018-08-17T12:32:44.547Z,40.84
2018-08-17T12:35:14.143Z,41.36
2018-08-17T12:37:43.066Z,41.24
2018-08-17T12:40:12.832Z,41.54
2018-08-17T12:42:42.393Z,41.83
2018-08-17T12:45:16.183Z,42.09
2018-08-17T12:47:44.837Z,42.38
2018-08-17T12:50:13.560Z,42.16
2018-08-17T12:52:42.221Z,42.46
2018-08-17T12:55:10.976Z,41.80
2018-08-17T12:57:41.933Z,41.85
2018-08-17T13:00:11.386Z,42.05
2018-08-17T13:02:40.059Z,41.90
2018-08-17T13:05:08.631Z,41.78
2018-08-17T13:07:37.253Z,42.01
2018-08-17T13:10:06.120Z,42.41
2018-08-17T13:12:34.733Z,42.82
2018-08-17T13:15:03.411Z,41.82
2018-08-17T13:17:38.151Z,41.93
2018-08-17T13:20:07.419Z,41.72
2018-08-17T13:22:36.545Z,41.69
2018-08-17T13:25:05.203Z,41.04
2018-08-17T13:27:33.775Z,40.95
2018-08-17T13:30:02.350Z,41.50
2018-08-17T13:32:30.951Z,40.41
2018-08-17T13:34:59.593Z,39.82
2018-08-17T13:37:28.451Z,39.22
2018-08-17T13:39:57.085Z,38.42
2018-08-17T13:42:26.274Z,39.12
2018-08-17T13:45:01.612Z,38.93
2018-08-17T13:47:30.356Z,39.07
2018-08-17T13:49:58.977Z,38.27
2018-08-17T13:52:27.720Z,37.26
2018-08-17T13:54:56.458Z,37.14
2018-08-17T13:57:25.169Z,36.66
2018-08-17T13:59:53.889Z,36.58
2018-08-17T14:02:22.657Z,36.47
2018-08-17T14:04:51.210Z,36.28
2018-08-17T14:07:19.852Z,36.69
2018-08-17T14:09:48.505Z,36.67
2018-08-17T14:12:17.057Z,36.90
2018-08-17T14:14:45.591Z,37.14
2018-08-17T14:17:14.248Z,37.09
2018-08-17T14:19:42.797Z,37.57
2018-08-17T14:22:11.663Z,37.20
2018-08-17T14:24:40.237Z,37.27
2018-08-17T14:27:08.820Z,37.58
2018-08-17T14:29:37.475Z,36.85
2018-08-17T14:32:06.427Z,37.36
2018-08-17T14:34:34.991Z,37.10
2018-08-17T14:37:03.545Z,37.16
2018-08-17T14:39:32.310Z,37.21
2018-08-17T14:42:02.013Z,36.69
2018-08-17T14:44:30.921Z,36.60
2018-08-17T14:46:59.547Z,36.74
2018-08-17T14:49:28.116Z,36.44
2018-08-17T14:51:56.710Z,36.38
2018-08-17T14:54:25.276Z,36.20
2018-08-17T14:56:53.921Z,35.17
2018-08-17T14:59:22.709Z,35.76
2018-08-17T15:01:51.214Z,35.95
2018-08-17T15:04:19.758Z,35.45
2018-08-17T15:06:48.313Z,34.72
2018-08-17T15:09:16.929Z,34.83
2018-08-17T15:11:45.391Z,35.29
2018-08-17T15:14:14.708Z,34.42
2018-08-17T15:16:43.713Z,33.79
2018-08-17T15:19:12.356Z,33.37
2018-08-17T15:21:41.618Z,33.26
2018-08-17T15:24:11.386Z,33.30
2018-08-17T15:26:40.033Z,33.24
2018-08-17T15:29:08.656Z,33.55
2018-08-17T15:31:37.485Z,33.87
2018-08-17T15:34:06.136Z,34.35
2018-08-17T15:36:34.768Z,35.55
2018-08-17T15:39:03.634Z,35.00
2018-08-17T15:41:32.383Z,35.48
2018-08-17T15:44:01.022Z,35.04
2018-08-17T15:46:33.211Z,35.72
2018-08-17T15:49:02.101Z,35.24
2018-08-17T15:51:30.722Z,35.50
2018-08-17T15:53:59.586Z,35.87
2018-08-17T15:56:28.235Z,35.19
2018-08-17T15:58:57.261Z,35.83
2018-08-17T16:01:26.093Z,35.60
2018-08-17T16:03:54.612Z,36.19
2018-08-17T16:06:23.103Z,35.09
2018-08-17T16:08:52.199Z,34.75
2018-08-17T16:11:21.128Z,35.74
2018-08-17T16:13:50.134Z,34.92
2018-08-17T16:16:19.300Z,35.68
2018-08-17T16:18:48.289Z,35.59
2018-08-17T16:21:16.919Z,35.67
2018-08-17T16:23:45.656Z,36.15
2018-08-17T16:26:14.201Z,36.68
2018-08-17T16:28:42.727Z,36.22
2018-08-17T16:31:11.369Z,36.70
2018-08-17T16:33:39.925Z,35.83
2018-08-17T16:36:08.477Z,35.90
2018-08-17T16:38:37.555Z,36.29
2018-08-17T16:41:06.565Z,36.46
2018-08-17T16:43:42.920Z,36.10
2018-08-17T16:46:11.661Z,36.65
2018-08-17T16:48:41.127Z,36.39
2018-08-17T16:51:09.892Z,36.02
2018-08-17T16:53:38.566Z,36.18
2018-08-17T16:56:07.337Z,36.64
2018-08-17T16:58:35.913Z,36.37
2018-08-17T17:01:04.620Z,36.01
2018-08-17T17:03:39.770Z,36.80
2018-08-17T17:06:08.475Z,35.91
2018-08-17T17:08:37.478Z,35.88
2018-08-17T17:11:06.120Z,35.48
2018-08-17T17:13:39.489Z,36.76
2018-08-17T17:16:08.121Z,35.93
2018-08-17T17:18:36.663Z,35.65
2018-08-17T17:21:05.426Z,36.38
2018-08-17T17:23:34.088Z,36.21
2018-08-17T17:26:02.674Z,35.92
2018-08-17T17:28:32.633Z,37.19
2018-08-17T17:31:01.155Z,37.17
2018-08-17T17:33:29.725Z,36.89
2018-08-17T17:35:58.253Z,37.71
2018-08-17T17:38:26.762Z,37.17
2018-08-17T17:40:55.251Z,38.06
2018-08-17T17:43:23.883Z,37.60
2018-08-17T17:45:52.412Z,37.82
2018-08-17T17:48:20.947Z,37.43
2018-08-17T17:50:49.485Z,37.98
2018-08-17T17:53:18.063Z,38.31
2018-08-17T17:55:50.165Z,37.76
2018-08-17T17:58:19.433Z,37.34
2018-08-17T18:00:57.650Z,38.05
2018-08-17T18:03:27.819Z,37.15
2018-08-17T18:06:00.471Z,38.09
2018-08-17T18:08:30.329Z,38.33
2018-08-17T18:10:58.939Z,38.71
2018-08-17T18:13:27.511Z,39.88
2018-08-17T18:15:57.018Z,38.71
2018-08-17T18:18:25.650Z,38.92
2018-08-17T18:20:54.220Z,39.38
2018-08-17T18:23:22.860Z,39.61
2018-08-17T18:25:51.509Z,38.68
2018-08-17T18:28:20.075Z,38.86
2018-08-17T18:30:48.747Z,39.15
2018-08-17T18:33:17.267Z,40.07
2018-08-17T18:35:45.767Z,39.42
2018-08-17T18:38:14.270Z,40.19
2018-08-17T18:40:42.797Z,40.00
2018-08-17T18:43:11.381Z,40.59
2018-08-17T18:45:39.866Z,40.43
2018-08-17T18:48:08.413Z,41.26
2018-08-17T18:50:37.001Z,41.93
2018-08-17T18:53:05.555Z,42.26
2018-08-17T18:55:34.174Z,42.64
2018-08-17T18:58:02.729Z,42.79
2018-08-17T19:00:31.285Z,42.54
2018-08-17T19:02:59.928Z,42.96
2018-08-17T19:05:28.554Z,43.06
2018-08-17T19:07:57.194Z,44.14
2018-08-17T19:10:25.784Z,43.65
2018-08-17T19:12:54.361Z,43.37
2018-08-17T19:15:22.929Z,43.87
2018-08-17T19:17:51.491Z,43.92
2018-08-17T19:20:20.071Z,43.77
2018-08-17T19:22:48.693Z,44.33
2018-08-17T19:25:17.304Z,44.33
2018-08-17T19:27:45.836Z,44.42
2018-08-17T19:30:27.838Z,44.53
2018-08-17T19:32:57.593Z,45.01
2018-08-17T19:35:26.238Z,45.91
2018-08-17T19:37:54.905Z,45.19
2018-08-17T19:40:23.817Z,46.29
2018-08-17T19:42:52.414Z,45.86
2018-08-17T19:45:21.519Z,46.75
2018-08-17T19:47:50.278Z,46.64
2018-08-17T19:50:18.818Z,46.13
2018-08-17T19:52:47.331Z,46.60
2018-08-17T19:55:15.835Z,46.71
2018-08-17T19:57:44.443Z,46.90
2018-08-17T20:00:13.691Z,47.02
2018-08-17T20:02:42.524Z,48.16
2018-08-17T20:05:11.392Z,48.53
2018-08-17T20:07:40.219Z,48.67
2018-08-17T20:10:09.983Z,48.35
2018-08-17T20:12:38.503Z,48.63
2018-08-17T20:15:08.462Z,49.12
2018-08-17T20:17:37.417Z,48.61
2018-08-17T20:20:09.615Z,49.15
2018-08-17T20:22:38.172Z,49.04
2018-08-17T20:25:21.332Z,49.84
2018-08-17T20:27:49.906Z,49.74
2018-08-17T20:30:23.773Z,50.16
2018-08-17T20:32:52.388Z,49.91
2018-08-17T20:35:21.042Z,50.44
2018-08-17T20:37:52.013Z,50.33
2018-08-17T20:40:20.964Z,50.17
2018-08-17T20:42:49.660Z,50.32
2018-08-17T20:45:18.331Z,49.84
2018-08-17T20:47:46.935Z,50.27
2018-08-17T20:50:17.039Z,50.03
2018-08-17T20:52:50.557Z,50.01
2018-08-17T20:55:19.786Z,49.88
2018-08-17T20:57:50.360Z,50.21
2018-08-17T21:00:19.010Z,50.47
2018-08-17T21:02:47.841Z,50.88
2018-08-17T21:05:17.067Z,50.65
2018-08-17T21:07:46.388Z,51.41
2018-08-17T21:10:14.959Z,50.93
2018-08-17T21:12:43.549Z,51.54
2018-08-17T21:15:12.075Z,51.34
2018-08-17T21:17:40.614Z,51.73
2018-08-17T21:20:09.198Z,51.95
2018-08-17T21:22:37.647Z,52.20
2018-08-17T21:25:06.335Z,51.39
2018-08-17T21:27:35.060Z,51.95
2018-08-17T21:30:04.196Z,51.92
2018-08-17T21:32:32.686Z,52.29
2018-08-17T21:35:01.393Z,52.84
2018-08-17T21:37:30.108Z,52.83
2018-08-17T21:39:58.660Z,52.27
2018-08-17T21:42:27.188Z,52.37
2018-08-17T21:44:55.736Z,53.28
2018-08-17T21:47:24.201Z,52.81
2018-08-17T21:49:55.369Z,53.26
2018-08-17T21:52:24.209Z,52.81
2018-08-17T21:54:52.742Z,53.58
2018-08-17T21:57:21.293Z,53.61
2018-08-17T21:59:51.708Z,53.46
2018-08-17T22:02:21.008Z,53.17
2018-08-17T22:04:49.520Z,53.05
2018-08-17T22:07:21.320Z,53.78
2018-08-17T22:09:50.201Z,53.46
2018-08-17T22:12:18.768Z,54.13
2018-08-17T22:14:47.841Z,53.24
2018-08-17T22:17:28.759Z,53.72
2018-08-17T22:19:57.332Z,53.57
2018-08-17T22:22:25.948Z,54.05
2018-08-17T22:24:58.154Z,54.29
2018-08-17T22:27:27.983Z,53.85
2018-08-17T22:29:57.806Z,54.54
2018-08-17T22:32:26.353Z,54.13
2018-08-17T22:34:55.165Z,54.66
2018-08-17T22:37:23.716Z,54.76
2018-08-17T22:39:52.289Z,54.73
2018-08-17T22:42:22.473Z,54.12
2018-08-17T22:44:51.433Z,55.11
2018-08-17T22:47:22.131Z,54.52
2018-08-17T22:49:51.833Z,55.06
2018-08-17T22:52:20.376Z,54.65
2018-08-17T22:54:55.788Z,54.90
2018-08-17T22:57:24.568Z,55.56
2018-08-17T23:00:09.456Z,55.32
2018-08-17T23:02:38.642Z,55.88
2018-08-17T23:05:09.183Z,55.95
2018-08-17T23:07:37.968Z,56.08
2018-08-17T23:10:12.760Z,55.62
2018-08-17T23:12:41.506Z,55.64
2018-08-17T23:15:11.319Z,56.16
2018-08-17T23:17:40.802Z,55.78
2018-08-17T23:20:09.383Z,56.50
2018-08-17T23:22:47.943Z,55.80
2018-08-17T23:25:16.576Z,55.93
2018-08-17T23:27:45.688Z,56.50
2018-08-17T23:30:14.372Z,55.82
2018-08-17T23:32:43.145Z,56.05
2018-08-17T23:35:11.664Z,56.99
2018-08-17T23:37:40.367Z,56.55
2018-08-17T23:40:09.776Z,56.80
2018-08-17T23:42:38.284Z,57.12
2018-08-17T23:45:08.276Z,57.59
2018-08-17T23:47:36.778Z,57.32
2018-08-17T23:50:05.937Z,56.87
2018-08-17T23:52:34.543Z,57.46
2018-08-17T23:55:03.084Z,56.96
2018-08-17T23:57:31.686Z,57.73
